createdAt,value
2019-06-26T00:02:56.880Z,33.10
2019-06-26T00:08:06.702Z,33.10
2019-06-26T00:13:25.689Z,33.20
2019-06-26T00:18:24.663Z,33.10
2019-06-26T00:23:33.829Z,33.20
2019-06-26T00:28:43.844Z,33.20
2019-06-26T00:33:52.377Z,33.30
2019-06-26T00:39:00.515Z,33.30
2019-06-26T00:44:09.625Z,33.40
2019-06-26T00:49:18.026Z,33.40
2019-06-26T00:54:26.064Z,33.50
2019-06-26T00:59:34.510Z,33.60
2019-06-26T01:04:43.461Z,33.60
2019-06-26T01:09:51.342Z,33.70
2019-06-26T01:14:59.643Z,33.70
2019-06-26T01:20:08.886Z,33.60
2019-06-26T01:25:17.765Z,33.60
2019-06-26T01:30:27.025Z,33.60
2019-06-26T01:35:34.789Z,33.80
2019-06-26T01:40:42.944Z,33.90
2019-06-26T01:45:50.786Z,33.90
2019-06-26T01:50:59.526Z,33.80
2019-06-26T01:56:07.351Z,33.80
2019-06-26T02:01:15.909Z,33.70
2019-06-26T02:06:26.026Z,33.90
2019-06-26T02:11:34.864Z,34.00
2019-06-26T02:16:43.422Z,33.80
2019-06-26T02:21:52.102Z,34.00
2019-06-26T02:27:01.207Z,34.20
2019-06-26T02:32:09.713Z,34.10
2019-06-26T02:37:20.045Z,34.40
2019-06-26T02:42:28.052Z,34.50
2019-06-26T02:47:38.810Z,34.40
2019-06-26T02:52:46.894Z,34.60
2019-06-26T02:57:55.694Z,34.80
2019-06-26T03:03:03.621Z,35.10
2019-06-26T03:08:11.737Z,35.30
2019-06-26T03:13:19.508Z,35.30
2019-06-26T03:18:27.412Z,35.40
2019-06-26T03:23:35.462Z,35.50
2019-06-26T03:28:43.242Z,35.50
2019-06-26T03:33:51.435Z,35.60
2019-06-26T03:39:01.838Z,35.80
2019-06-26T03:44:10.141Z,35.80
2019-06-26T03:49:19.514Z,35.70
2019-06-26T03:54:27.965Z,36.00
2019-06-26T03:59:37.529Z,36.30
2019-06-26T04:04:46.444Z,36.30
2019-06-26T04:09:55.199Z,36.30
2019-06-26T04:15:04.117Z,36.30
2019-06-26T04:20:12.864Z,36.60
2019-06-26T04:25:21.905Z,36.80
2019-06-26T04:30:30.544Z,36.90
2019-06-26T04:35:39.070Z,37.10
2019-06-26T04:40:47.767Z,37.10
2019-06-26T04:45:58.568Z,37.40
2019-06-26T04:51:06.396Z,37.50
2019-06-26T04:56:16.402Z,37.70
2019-06-26T05:01:25.070Z,37.70
2019-06-26T05:06:33.243Z,37.90
2019-06-26T05:11:42.164Z,37.90
2019-06-26T05:16:50.665Z,38.00
2019-06-26T05:21:59.078Z,38.00
2019-06-26T05:27:07.493Z,38.40
2019-06-26T05:32:15.364Z,38.50
2019-06-26T05:37:23.343Z,38.60
2019-06-26T05:42:31.970Z,38.40
2019-06-26T05:47:39.879Z,38.60
2019-06-26T05:52:48.162Z,38.60
2019-06-26T05:57:55.989Z,38.80
2019-06-26T06:03:04.432Z,38.90
2019-06-26T06:08:12.584Z,39.00
2019-06-26T06:13:21.996Z,39.00
2019-06-26T06:18:30.454Z,39.00
2019-06-26T06:23:38.961Z,39.00
2019-06-26T06:28:46.799Z,39.10
2019-06-26T06:33:55.230Z,39.10
2019-06-26T06:39:03.529Z,39.20
2019-06-26T06:44:11.746Z,39.30
2019-06-26T06:49:20.122Z,39.20
2019-06-26T06:54:28.012Z,39.40
2019-06-26T06:59:35.769Z,39.50
2019-06-26T07:04:44.075Z,39.70
2019-06-26T07:09:52.036Z,39.90
2019-06-26T07:15:01.028Z,40.10
2019-06-26T07:20:09.811Z,40.10
2019-06-26T07:25:18.543Z,40.20
2019-06-26T07:30:27.210Z,40.40
2019-06-26T07:35:35.672Z,40.50
2019-06-26T07:40:45.141Z,40.50
2019-06-26T07:45:52.518Z,40.50
2019-06-26T07:51:00.505Z,40.50
2019-06-26T07:56:08.735Z,40.80
2019-06-26T08:01:16.599Z,40.90
2019-06-26T08:06:25.889Z,40.90
2019-06-26T08:11:35.140Z,41.00
2019-06-26T08:16:43.348Z,41.10
2019-06-26T08:21:51.267Z,41.20
2019-06-26T08:26:59.288Z,41.20
2019-06-26T08:32:07.576Z,41.10
2019-06-26T08:37:16.442Z,41.20
2019-06-26T08:42:24.850Z,40.90
2019-06-26T08:47:33.483Z,41.00
2019-06-26T08:52:42.629Z,41.30
2019-06-26T08:57:50.710Z,41.50
2019-06-26T09:02:59.557Z,41.60
2019-06-26T09:08:07.955Z,41.70
2019-06-26T09:13:17.320Z,41.70
2019-06-26T09:18:35.578Z,41.80
2019-06-26T09:23:35.141Z,41.90
2019-06-26T09:28:44.696Z,41.90
2019-06-26T09:33:53.372Z,41.80
2019-06-26T09:39:01.882Z,41.70
2019-06-26T09:44:11.130Z,41.70
2019-06-26T09:49:20.260Z,41.50
2019-06-26T09:54:28.712Z,41.40
2019-06-26T09:59:36.799Z,41.30
2019-06-26T10:04:45.233Z,41.10
2019-06-26T10:09:53.783Z,41.10
2019-06-26T10:15:02.005Z,41.10
2019-06-26T10:20:12.395Z,40.80
2019-06-26T10:25:21.714Z,41.00
2019-06-26T10:30:32.492Z,40.90
2019-06-26T10:35:41.125Z,41.00
2019-06-26T10:40:51.274Z,41.00
2019-06-26T10:46:05.246Z,40.60
2019-06-26T10:51:13.241Z,40.70
2019-06-26T10:56:23.036Z,40.90
2019-06-26T11:01:31.738Z,40.80
2019-06-26T11:06:39.643Z,40.80
2019-06-26T11:11:47.754Z,40.50
2019-06-26T11:16:55.687Z,40.50
2019-06-26T11:22:04.202Z,40.30
2019-06-26T11:27:14.121Z,40.00
2019-06-26T11:32:22.930Z,40.10
2019-06-26T11:37:31.509Z,39.90
2019-06-26T11:42:39.722Z,39.90
2019-06-26T11:47:48.937Z,39.60
2019-06-26T11:52:57.224Z,39.40
2019-06-26T11:58:05.311Z,39.50
2019-06-26T12:03:13.625Z,39.20
2019-06-26T12:08:22.290Z,39.40
2019-06-26T12:13:33.319Z,39.30
2019-06-26T12:18:41.865Z,39.30
2019-06-26T12:23:50.009Z,39.20
2019-06-26T12:28:58.963Z,39.10
2019-06-26T12:34:07.692Z,38.90
2019-06-26T12:39:15.886Z,38.90
2019-06-26T12:44:24.331Z,38.90
2019-06-26T12:54:59.464Z,38.70
2019-06-26T13:00:09.354Z,38.70
2019-06-26T13:05:18.393Z,38.60
2019-06-26T13:10:26.937Z,38.60
2019-06-26T13:15:35.138Z,38.50
2019-06-26T13:20:52.576Z,38.30
2019-06-26T13:25:53.805Z,38.30
2019-06-26T13:31:02.121Z,38.20
2019-06-26T13:36:10.740Z,38.20
2019-06-26T13:41:19.345Z,38.20
2019-06-26T13:46:27.730Z,38.10
2019-06-26T13:51:35.757Z,37.90
2019-06-26T13:56:43.580Z,37.90
2019-06-26T14:01:52.717Z,37.80
2019-06-26T14:07:00.665Z,37.90
2019-06-26T14:12:08.611Z,37.80
2019-06-26T14:17:17.608Z,37.70
2019-06-26T14:22:25.237Z,37.70
2019-06-26T14:27:33.077Z,37.50
2019-06-26T14:32:40.979Z,37.40
2019-06-26T14:37:49.394Z,37.30
2019-06-26T14:42:59.131Z,37.40
2019-06-26T14:48:07.605Z,37.30
2019-06-26T14:53:16.098Z,37.10
2019-06-26T14:58:24.546Z,37.10
2019-06-26T15:03:32.624Z,37.00
2019-06-26T15:08:40.975Z,36.90
2019-06-26T15:13:49.743Z,36.90
2019-06-26T15:18:57.867Z,36.80
2019-06-26T15:24:06.230Z,36.90
2019-06-26T15:29:14.197Z,36.80
2019-06-26T15:34:21.984Z,36.70
2019-06-26T15:39:30.085Z,36.70
2019-06-26T15:44:38.586Z,36.70
2019-06-26T15:49:47.372Z,36.40
2019-06-26T15:54:55.899Z,36.40
2019-06-26T16:00:03.857Z,36.40
2019-06-26T16:05:13.377Z,36.10
2019-06-26T16:10:21.697Z,36.00
2019-06-26T16:15:30.100Z,36.10
2019-06-26T16:20:40.431Z,36.10
2019-06-26T16:25:48.391Z,36.20
2019-06-26T16:30:57.765Z,35.80
2019-06-26T16:36:05.758Z,36.10
2019-06-26T16:41:15.032Z,36.00
2019-06-26T16:46:23.047Z,36.00
2019-06-26T16:51:31.100Z,36.00
2019-06-26T16:56:39.882Z,35.90
2019-06-26T17:01:47.644Z,35.70
2019-06-26T17:06:55.878Z,35.40
2019-06-26T17:12:03.991Z,35.40
2019-06-26T17:17:13.626Z,35.00
2019-06-26T17:22:22.933Z,34.70
2019-06-26T17:27:32.370Z,34.90
2019-06-26T17:32:40.928Z,34.90
2019-06-26T17:37:50.213Z,35.20
2019-06-26T17:43:11.826Z,34.60
2019-06-26T17:48:08.652Z,34.50
2019-06-26T17:53:21.531Z,34.50
2019-06-26T17:58:26.267Z,34.50
2019-06-26T18:03:34.840Z,34.20
2019-06-26T18:08:43.348Z,34.00
2019-06-26T18:13:51.869Z,34.00
2019-06-26T18:18:59.632Z,33.70
2019-06-26T18:24:07.730Z,33.80
2019-06-26T18:29:15.620Z,33.90
2019-06-26T18:34:24.047Z,34.20
2019-06-26T18:39:32.627Z,33.80
2019-06-26T18:44:40.587Z,34.10
2019-06-26T18:49:48.233Z,33.90
2019-06-26T18:54:56.565Z,34.20
2019-06-26T19:00:05.525Z,34.20
2019-06-26T19:05:14.795Z,34.10
2019-06-26T19:10:22.680Z,34.10
2019-06-26T19:15:31.043Z,34.20
2019-06-26T19:20:40.441Z,34.00
2019-06-26T19:25:49.500Z,33.90
2019-06-26T19:30:57.748Z,33.90
2019-06-26T19:36:06.931Z,33.50
2019-06-26T19:41:15.641Z,33.60
2019-06-26T19:46:23.726Z,33.90
2019-06-26T19:51:33.871Z,34.00
2019-06-26T19:56:41.920Z,34.10
2019-06-26T20:01:51.446Z,34.20
2019-06-26T20:06:58.808Z,34.00
2019-06-26T20:12:07.608Z,34.00
2019-06-26T20:17:15.726Z,33.80
2019-06-26T20:22:24.847Z,33.80
2019-06-26T20:27:32.771Z,33.80
2019-06-26T20:32:42.557Z,33.80
2019-06-26T20:37:50.560Z,33.90
2019-06-26T20:42:59.071Z,33.70
2019-06-26T20:48:07.612Z,33.60
2019-06-26T20:53:15.402Z,33.60
2019-06-26T20:58:23.678Z,33.70
2019-06-26T21:03:32.343Z,33.60
2019-06-26T21:08:40.751Z,33.10
2019-06-26T21:13:48.900Z,33.50
2019-06-26T21:18:57.040Z,33.50
2019-06-26T21:24:05.231Z,33.60
2019-06-26T21:29:13.404Z,33.60
2019-06-26T21:34:20.943Z,33.60
2019-06-26T21:39:29.131Z,33.20
2019-06-26T21:44:36.840Z,33.30
2019-06-26T21:49:44.981Z,33.30
2019-06-26T21:54:52.790Z,33.10
2019-06-26T22:00:02.213Z,33.10
2019-06-26T22:05:12.239Z,33.20
2019-06-26T22:10:21.848Z,33.20
2019-06-26T22:15:30.186Z,33.20
2019-06-26T22:20:39.346Z,33.30
2019-06-26T22:25:51.276Z,32.90
2019-06-26T22:30:57.551Z,32.90
2019-06-26T22:36:08.508Z,33.00
2019-06-26T22:41:16.801Z,33.00
2019-06-26T22:46:25.106Z,33.00
2019-06-26T22:51:33.105Z,32.90
2019-06-26T22:56:42.218Z,32.90
2019-06-26T23:01:50.642Z,32.90
2019-06-26T23:06:58.967Z,32.80
2019-06-26T23:12:08.730Z,32.70
2019-06-26T23:17:17.049Z,32.80
2019-06-26T23:22:24.575Z,32.80
2019-06-26T23:27:32.927Z,32.80
2019-06-26T23:32:41.156Z,32.40
2019-06-26T23:37:49.236Z,32.70
2019-06-26T23:42:57.379Z,32.80
2019-06-26T23:48:06.073Z,32.80
2019-06-26T23:53:13.970Z,32.90
2019-06-26T23:58:22.066Z,32.80
